Time;durP1;ratioP1;P1;durP2;ratioP2;P2;SDS_P1;SDS_P2;PMS_P1;PMS_P2;Temp;Humidity;BMP_temperature;BMP_pressure;BME280_temperature;BME280_humidity;BME280_pressure;Samples;Min_cycle;Max_cycle;Signal;HPM_P1;HPM_P2
2021/12/13 00:01:33;;;;;;;90.27;30.97;;;-0.20;99.90;-1.30;100932;;;;589464;244;25097;-81
2021/12/13 00:04:01;;;;;;;63.73;22.67;;;-0.20;99.90;-1.40;100936;;;;582569;242;24143;-84
2021/12/13 00:06:29;;;;;;;65.50;24.77;;;-0.20;99.90;-1.40;100922;;;;583202;242;25137;-83
2021/12/13 00:08:57;;;;;;;72.23;26.37;;;-0.20;99.90;-1.30;100936;;;;583034;242;24126;-82
2021/12/13 00:11:34;;;;;;;64.93;24.47;;;-0.20;99.90;-1.30;100926;;;;583167;242;24119;-84
2021/12/13 00:14:02;;;;;;;68.37;23.30;;;-0.10;99.90;-1.30;100939;;;;583215;242;24093;-82
2021/12/13 00:16:33;;;;;;;69.00;27.20;;;-0.10;99.90;-1.30;100935;;;;578173;242;24067;-82
2021/12/13 00:19:00;;;;;;;54.67;23.90;;;-0.10;99.90;-1.20;100942;;;;585004;243;24077;-82
2021/12/13 00:21:31;;;;;;;69.23;23.07;;;-0.10;99.90;-1.20;100943;;;;575648;245;25122;-82
2021/12/13 00:24:00;;;;;;;48.03;15.13;;;0.00;99.90;-1.20;100946;;;;567635;249;24151;-81
2021/12/13 00:26:29;;;;;;;42.03;13.50;;;0.00;99.90;-1.20;100940;;;;567594;249;24119;-82
2021/12/13 00:29:00;;;;;;;41.10;12.40;;;0.00;99.90;-1.10;100944;;;;557040;254;24199;-82
2021/12/13 00:32:02;;;;;;;33.87;13.60;;;0.00;99.90;-1.10;100946;;;;565548;254;24142;-83
2021/12/13 00:34:49;;;;;;;22.90;12.17;;;0.00;99.90;-1.10;100951;;;;565452;254;24167;-84
2021/12/13 00:37:22;;;;;;;62.67;22.40;;;0.00;99.90;-1.10;100955;;;;566126;253;24156;-82
2021/12/13 00:39:59;;;;;;;74.50;26.80;;;0.10;99.90;-1.10;100948;;;;556178;254;24185;-82
2021/12/13 00:42:29;;;;;;;33.63;14.57;;;0.10;99.90;-1.10;100937;;;;556918;254;25231;-83
2021/12/13 00:44:57;;;;;;;34.37;13.10;;;0.10;99.90;-1.10;100940;;;;556571;254;24134;-83
2021/12/13 00:47:26;;;;;;;22.67;10.97;;;0.10;99.90;-1.00;100940;;;;567763;249;24127;-82
2021/12/13 00:50:12;;;;;;;29.77;13.17;;;0.10;99.90;-1.00;100940;;;;567761;249;24097;-82
2021/12/13 00:52:43;;;;;;;24.97;11.47;;;0.10;99.90;-1.00;100939;;;;557201;254;24198;-83
2021/12/13 00:55:14;;;;;;;34.63;13.57;;;0.10;99.90;-1.00;100938;;;;567582;249;24128;-82
2021/12/13 00:57:45;;;;;;;45.90;14.27;;;0.10;99.90;-1.10;100946;;;;568588;248;24125;-84
2021/12/13 01:00:13;;;;;;;38.97;15.60;;;0.10;99.90;-1.10;100933;;;;567272;253;24139;-82
2021/12/13 01:02:46;;;;;;;41.23;14.10;;;0.10;99.90;-1.10;100942;;;;568751;248;24108;-83
2021/12/13 01:05:38;;;;;;;41.57;15.17;;;0.00;99.90;-1.20;100931;;;;566934;253;24162;-84
2021/12/13 01:08:31;;;;;;;39.50;15.10;;;-0.10;99.90;-1.20;100934;;;;558449;253;24170;-82
2021/12/13 01:11:20;;;;;;;71.67;23.70;;;-0.10;99.90;-1.30;100935;;;;558318;253;24137;-82
2021/12/13 01:13:48;;;;;;;91.17;28.70;;;-0.20;99.90;-1.40;100935;;;;557221;253;25183;-85
2021/12/13 01:16:51;;;;;;;84.47;29.23;;;-0.30;99.90;-1.50;100933;;;;567798;249;24175;-82
2021/12/13 01:22:20;;;;;;;95.00;30.87;;;-0.40;99.90;-1.60;100926;;;;559350;249;24195;-85
2021/12/13 01:25:03;;;;;;;74.93;27.13;;;-0.50;99.90;-1.70;100918;;;;561434;253;24208;-84
2021/12/13 01:26:59;;;;;;;89.27;31.27;;;-0.60;99.90;-1.70;100915;;;;566908;249;24208;-85
2021/12/13 01:29:26;;;;;;;81.87;29.03;;;-0.60;99.90;-1.70;100917;;;;568444;249;24158;-85
2021/12/13 01:31:57;;;;;;;92.43;29.87;;;-0.60;99.90;-1.70;100918;;;;568899;249;24149;-87
2021/12/13 01:34:26;;;;;;;93.10;30.97;;;-0.70;99.90;-1.80;100920;;;;558269;253;24159;-86
2021/12/13 01:37:03;;;;;;;89.17;31.23;;;-0.70;99.90;-1.80;100921;;;;568383;249;24116;-83
2021/12/13 01:39:22;;;;;;;97.40;31.37;;;-0.70;99.90;-1.80;100925;;;;568866;244;24117;-80
2021/12/13 01:41:55;;;;;;;102.57;31.13;;;-0.70;99.90;-1.90;100913;;;;567685;249;24179;-83
2021/12/13 01:44:23;;;;;;;99.10;32.87;;;-0.80;99.90;-1.90;100917;;;;567800;249;24211;-82
2021/12/13 01:46:53;;;;;;;104.63;31.43;;;-0.80;99.90;-1.90;100918;;;;576834;246;24125;-81
2021/12/13 01:49:21;;;;;;;91.30;30.67;;;-0.80;99.90;-1.90;100917;;;;568058;249;24123;-84
2021/12/13 01:51:49;;;;;;;76.28;22.75;;;-0.80;99.90;-1.90;100915;;;;571826;246;35509;-82
2021/12/13 01:54:18;;;;;;;62.40;16.97;;;-0.80;99.90;-1.90;100917;;;;568197;249;24161;-83
2021/12/13 01:56:58;;;;;;;44.87;15.27;;;-0.80;99.90;-1.90;100919;;;;567891;249;25150;-82
2021/12/13 02:02:24;;;;;;;84.33;27.23;;;-0.70;99.90;-1.80;100919;;;;577922;244;24048;-82
2021/12/13 02:05:07;;;;;;;90.53;28.73;;;-0.70;99.90;-1.80;100926;;;;578588;244;24080;-81
2021/12/13 02:08:09;;;;;;;111.73;33.33;;;-0.60;99.90;-1.80;100911;;;;586240;244;24122;-81
2021/12/13 02:10:45;;;;;;;111.13;33.20;;;-0.60;99.90;-1.80;100915;;;;585703;240;24088;-80
2021/12/13 02:13:23;;;;;;;129.60;33.77;;;-0.60;99.90;-1.70;100920;;;;588049;241;24075;-84
2021/12/13 02:18:36;;;;;;;92.73;29.17;;;-0.60;99.90;-1.70;100922;;;;599606;236;24021;-81
2021/12/13 02:21:12;;;;;;;97.40;28.87;;;-0.60;99.90;-1.70;100924;;;;599393;236;24099;-81
2021/12/13 02:23:38;;;;;;;106.70;31.30;;;-0.60;99.90;-1.70;100920;;;;599236;236;24022;-83
2021/12/13 02:26:10;;;;;;;77.37;26.73;;;-0.50;99.90;-1.70;100916;;;;599187;236;24107;-79
2021/12/13 02:28:36;;;;;;;79.87;25.67;;;-0.50;99.90;-1.60;100926;;;;586807;241;24094;-81
2021/12/13 02:31:07;;;;;;;71.00;22.10;;;-0.50;99.90;-1.60;100936;;;;587227;241;24072;-81
2021/12/13 02:33:38;;;;;;;82.83;26.33;;;-0.40;99.90;-1.50;100939;;;;586499;241;24037;-82
2021/12/13 02:36:06;;;;;;;67.40;23.73;;;-0.40;99.90;-1.50;100943;;;;598764;236;24035;-81
2021/12/13 02:38:34;;;;;;;59.03;22.13;;;-0.30;99.90;-1.50;100930;;;;598951;236;24053;-82
2021/12/13 02:41:02;;;;;;;68.67;24.97;;;-0.30;99.90;-1.40;100939;;;;576257;245;24140;-81
2021/12/13 02:43:30;;;;;;;65.10;22.23;;;-0.20;99.90;-1.40;100934;;;;599198;236;24054;-82
2021/12/13 02:46:01;;;;;;;64.53;22.17;;;-0.20;99.90;-1.30;100952;;;;598240;236;24074;-83
2021/12/13 02:48:38;;;;;;;54.90;21.13;;;-0.20;99.90;-1.30;100960;;;;598099;236;24049;-83
2021/12/13 02:51:17;;;;;;;55.53;22.97;;;-0.10;99.90;-1.30;100960;;;;586734;241;24076;-82
2021/12/13 02:53:45;;;;;;;70.10;22.60;;;-0.10;99.90;-1.20;100969;;;;587000;241;25094;-81
2021/12/13 02:56:13;;;;;;;76.13;23.77;;;0.00;99.90;-1.20;100950;;;;586323;241;24080;-82
2021/12/13 02:58:45;;;;;;;61.20;23.80;;;0.00;99.90;-1.20;100944;;;;587004;241;24060;-82
2021/12/13 03:01:22;;;;;;;58.80;23.13;;;0.00;99.90;-1.20;100946;;;;586603;241;24052;-82
2021/12/13 03:03:49;;;;;;;66.90;22.43;;;0.00;99.90;-1.20;100944;;;;586980;241;24079;-85
2021/12/13 03:06:18;;;;;;;58.30;20.93;;;0.00;99.90;-1.20;100939;;;;586720;241;24090;-85
2021/12/13 03:08:50;;;;;;;62.10;22.70;;;0.10;99.90;-1.10;100926;;;;586586;241;24046;-85
2021/12/13 03:11:23;;;;;;;53.37;19.67;;;0.10;99.90;-1.10;100937;;;;586175;241;24101;-83
2021/12/13 03:13:50;;;;;;;42.17;14.87;;;0.10;99.90;-1.10;100940;;;;598229;236;24072;-82
2021/12/13 03:16:17;;;;;;;41.70;13.73;;;0.10;99.90;-1.10;100943;;;;598429;236;24051;-85
2021/12/13 03:19:00;;;;;;;29.43;11.40;;;0.10;99.90;-1.00;100943;;;;586780;241;24076;-83
2021/12/13 03:22:11;;;;;;;28.13;12.47;;;0.20;99.90;-1.00;100939;;;;599891;236;24085;-85
2021/12/13 03:24:40;;;;;;;41.50;13.47;;;0.20;99.90;-1.00;100936;;;;600093;236;24006;-85
2021/12/13 03:27:17;;;;;;;37.73;11.53;;;0.20;99.90;-1.00;100947;;;;596526;236;24113;-84
2021/12/13 03:29:54;;;;;;;35.80;12.37;;;0.20;99.90;-1.00;100945;;;;598005;236;24069;-85
2021/12/13 03:32:22;;;;;;;36.73;13.63;;;0.20;99.90;-0.90;100943;;;;586974;241;24073;-85
2021/12/13 03:35:09;;;;;;;23.97;11.63;;;0.30;99.90;-0.90;100945;;;;587180;241;24106;-85
2021/12/13 03:37:33;;;;;;;38.60;14.80;;;0.30;99.90;-0.90;100944;;;;579753;241;24053;-86
2021/12/13 03:40:02;;;;;;;46.40;16.03;;;0.30;99.90;-0.90;100947;;;;608259;236;24018;-84
2021/12/13 03:42:30;;;;;;;48.17;16.20;;;0.20;99.90;-1.00;100938;;;;598147;236;24029;-83
2021/12/13 03:44:59;;;;;;;45.53;15.80;;;0.20;99.90;-1.00;100931;;;;586638;241;24123;-84
2021/12/13 03:47:34;;;;;;;43.87;15.57;;;0.10;99.90;-1.10;100937;;;;586405;241;24060;-86
2021/12/13 03:49:58;;;;;;;43.43;14.60;;;0.10;99.90;-1.20;100942;;;;582079;241;24123;-84
2021/12/13 03:52:27;;;;;;;49.90;16.30;;;0.00;99.90;-1.20;100939;;;;576646;245;24097;-85
2021/12/13 03:54:55;;;;;;;50.77;16.63;;;-0.10;99.90;-1.30;100950;;;;566438;250;24128;-83
2021/12/13 03:57:22;;;;;;;52.53;16.20;;;-0.10;99.90;-1.30;100945;;;;566124;250;24121;-84
2021/12/13 03:59:53;;;;;;;50.20;16.07;;;-0.10;99.90;-1.40;100951;;;;566016;250;25075;-84
2021/12/13 04:02:19;;;;;;;48.10;16.47;;;-0.20;99.90;-1.40;100942;;;;576676;245;24082;-83
2021/12/13 04:04:48;;;;;;;66.37;21.93;;;-0.20;99.90;-1.40;100949;;;;582524;245;24101;-83
2021/12/13 04:07:16;;;;;;;94.90;29.67;;;-0.30;99.90;-1.40;100944;;;;576334;244;24116;-83
2021/12/13 04:09:48;;;;;;;69.73;23.33;;;-0.30;99.90;-1.50;100944;;;;584025;241;25112;-82
2021/12/13 04:12:15;;;;;;;90.53;27.53;;;-0.30;99.90;-1.50;100945;;;;574982;246;24096;-81
2021/12/13 04:14:43;;;;;;;84.20;23.57;;;-0.30;99.90;-1.40;100951;;;;579021;244;24101;-84
2021/12/13 04:17:21;;;;;;;104.53;28.77;;;-0.30;99.90;-1.40;100953;;;;584285;241;24114;-83
2021/12/13 04:19:53;;;;;;;104.17;30.03;;;-0.30;99.90;-1.40;100944;;;;584437;246;24101;-84
2021/12/13 04:22:21;;;;;;;84.80;28.17;;;-0.20;99.90;-1.40;100946;;;;575573;246;24094;-83
2021/12/13 04:24:51;;;;;;;93.07;30.67;;;-0.20;99.90;-1.40;100957;;;;585776;241;24100;-84
2021/12/13 04:27:19;;;;;;;98.57;28.63;;;-0.30;99.90;-1.40;100966;;;;572907;246;24101;-85
2021/12/13 04:29:50;;;;;;;98.93;30.77;;;-0.20;99.90;-1.40;100965;;;;597996;237;24036;-84
2021/12/13 04:32:26;;;;;;;85.57;25.60;;;-0.20;99.90;-1.30;100960;;;;597204;236;25073;-84
2021/12/13 04:34:57;;;;;;;119.60;34.20;;;-0.20;99.90;-1.30;100962;;;;608747;236;24115;-81
2021/12/13 04:37:22;;;;;;;87.77;26.70;;;-0.10;99.90;-1.30;100963;;;;586482;241;24060;-81
2021/12/13 04:39:53;;;;;;;75.53;24.63;;;-0.10;99.90;-1.30;100968;;;;587013;241;24076;-82
2021/12/13 04:42:21;;;;;;;81.73;24.07;;;-0.10;99.90;-1.20;100967;;;;586924;241;24184;-82
2021/12/13 04:45:05;;;;;;;61.33;21.83;;;0.00;99.90;-1.20;100980;;;;586955;241;24058;-81
2021/12/13 04:47:44;;;;;;;91.43;29.43;;;0.00;99.90;-1.10;100975;;;;586982;241;24074;-83
2021/12/13 04:50:15;;;;;;;57.80;20.33;;;0.00;99.90;-1.10;100979;;;;586867;241;24054;-82
2021/12/13 04:52:47;;;;;;;70.83;24.87;;;0.10;99.90;-1.00;100981;;;;585999;241;24113;-82
2021/12/13 04:55:29;;;;;;;71.60;23.17;;;0.20;99.90;-1.00;100973;;;;586403;241;24061;-82
2021/12/13 04:57:57;;;;;;;70.10;24.67;;;0.20;99.90;-0.90;100982;;;;586012;241;24055;-82
2021/12/13 05:00:25;;;;;;;44.37;16.10;;;0.30;99.90;-0.90;100982;;;;586682;241;24061;-86
2021/12/13 05:02:53;;;;;;;41.60;15.37;;;0.30;99.90;-0.90;100986;;;;586401;241;24106;-82
2021/12/13 05:05:21;;;;;;;42.23;14.03;;;0.30;99.90;-0.90;100991;;;;586502;241;24107;-84
2021/12/13 05:07:49;;;;;;;35.57;14.47;;;0.30;99.90;-0.90;100987;;;;586402;241;24179;-85
2021/12/13 05:10:16;;;;;;;51.70;15.73;;;0.30;99.90;-0.90;100997;;;;586190;241;24125;-82
2021/12/13 05:13:00;;;;;;;50.13;16.97;;;0.30;99.90;-0.90;101001;;;;586186;241;24073;-84
2021/12/13 05:15:28;;;;;;;50.13;16.93;;;0.30;99.90;-0.90;100992;;;;585897;241;24066;-86
2021/12/13 05:17:57;;;;;;;54.00;17.70;;;0.30;99.90;-0.90;100991;;;;586121;241;24061;-85
2021/12/13 05:20:28;;;;;;;43.13;15.70;;;0.30;99.90;-0.90;100999;;;;585774;241;24065;-84
2021/12/13 05:22:59;;;;;;;37.70;15.23;;;0.30;99.90;-0.90;101000;;;;585770;241;24054;-84
2021/12/13 05:25:33;;;;;;;51.03;18.57;;;0.30;99.90;-0.90;100989;;;;585890;241;24183;-84
2021/12/13 05:28:18;;;;;;;59.53;18.80;;;0.30;99.90;-0.90;100997;;;;585884;241;24105;-83
2021/12/13 05:30:49;;;;;;;52.47;18.50;;;0.30;99.90;-0.90;100996;;;;585467;241;24081;-83
2021/12/13 05:33:17;;;;;;;42.93;15.33;;;0.30;99.90;-0.90;101007;;;;585388;241;24141;-82
2021/12/13 05:35:49;;;;;;;37.40;15.90;;;0.30;99.90;-0.90;101002;;;;585730;241;24168;-83
2021/12/13 05:38:35;;;;;;;28.50;13.73;;;0.30;99.90;-0.90;100999;;;;585974;241;24152;-82
2021/12/13 05:41:05;;;;;;;48.47;17.47;;;0.30;99.90;-0.80;100998;;;;585916;241;24134;-84
2021/12/13 05:43:42;;;;;;;69.53;20.47;;;0.40;99.90;-0.80;101001;;;;586744;241;24146;-83
2021/12/13 05:46:17;;;;;;;61.93;20.47;;;0.30;99.90;-0.90;100993;;;;586543;241;24096;-83
2021/12/13 05:48:50;;;;;;;60.10;20.13;;;0.30;99.90;-0.90;100995;;;;595995;241;24112;-83
2021/12/13 05:51:24;;;;;;;57.27;20.77;;;0.30;99.90;-1.00;101002;;;;586350;241;24078;-83
2021/12/13 05:54:01;;;;;;;68.73;21.47;;;0.20;99.90;-1.00;101000;;;;586944;241;24058;-81
2021/12/13 05:56:51;;;;;;;76.53;22.50;;;0.10;99.90;-1.10;101001;;;;571691;246;24117;-81
2021/12/13 05:59:30;;;;;;;91.80;24.90;;;0.10;99.90;-1.10;100993;;;;567832;249;24145;-84
2021/12/13 06:02:11;;;;;;;81.90;23.70;;;0.10;99.90;-1.20;100989;;;;568163;249;24113;-84
2021/12/13 06:05:00;;;;;;;61.73;21.27;;;0.00;99.90;-1.20;100992;;;;576319;242;24089;-86
2021/12/13 06:07:34;;;;;;;111.27;33.33;;;0.00;99.90;-1.20;101005;;;;578584;244;25040;-83
2021/12/13 06:10:05;;;;;;;105.10;31.70;;;0.00;99.90;-1.20;100999;;;;578651;244;24099;-84
2021/12/13 06:12:38;;;;;;;119.13;34.83;;;0.00;99.90;-1.10;101011;;;;581484;243;24049;-84
2021/12/13 06:15:20;;;;;;;122.87;32.80;;;0.00;99.90;-1.10;101007;;;;586694;241;24097;-84
2021/12/13 06:18:04;;;;;;;145.53;40.17;;;0.10;99.90;-1.00;101009;;;;584680;241;24121;-84
2021/12/13 06:20:55;;;;;;;122.67;35.37;;;0.10;99.90;-1.00;101012;;;;586451;241;24050;-83
2021/12/13 06:23:29;;;;;;;109.23;35.23;;;0.10;99.90;-1.00;101008;;;;586128;241;24126;-86
2021/12/13 06:25:58;;;;;;;127.33;36.20;;;0.10;99.90;-1.00;101014;;;;586330;241;25233;-84
2021/12/13 06:28:36;;;;;;;137.47;36.13;;;0.20;99.90;-1.00;101006;;;;585301;241;24058;-83
2021/12/13 06:31:04;;;;;;;123.97;34.57;;;0.20;99.90;-1.00;101007;;;;575242;246;24140;-83
2021/12/13 06:33:50;;;;;;;115.33;33.10;;;0.20;99.90;-1.00;101006;;;;580208;244;24056;-85
2021/12/13 06:36:29;;;;;;;122.63;36.43;;;0.20;99.90;-1.00;101012;;;;586404;240;24082;-86
2021/12/13 06:39:07;;;;;;;105.17;34.57;;;0.20;99.90;-1.00;101004;;;;586558;241;24077;-84
2021/12/13 06:41:38;;;;;;;135.70;39.63;;;0.20;99.90;-1.00;101007;;;;595538;241;24075;-84
2021/12/13 06:44:24;;;;;;;147.87;40.80;;;0.20;99.90;-1.00;101012;;;;586296;241;24071;-85
2021/12/13 06:47:01;;;;;;;116.97;37.47;;;0.20;99.90;-1.00;101011;;;;595116;241;24105;-86
2021/12/13 06:49:42;;;;;;;109.03;35.50;;;0.20;99.90;-1.00;101027;;;;594762;241;24115;-86
2021/12/13 06:52:10;;;;;;;122.73;38.87;;;0.20;99.90;-0.90;101031;;;;585161;241;24144;-86
2021/12/13 06:54:47;;;;;;;109.70;35.47;;;0.20;99.90;-0.90;101025;;;;584842;240;24081;-85
2021/12/13 06:57:33;;;;;;;113.43;34.37;;;0.30;99.90;-0.80;101026;;;;586511;241;24048;-85
2021/12/13 07:00:16;;;;;;;117.47;39.17;;;0.30;99.90;-0.80;101034;;;;587308;241;24064;-85
2021/12/13 07:02:50;;;;;;;105.70;35.53;;;0.30;99.90;-0.80;101023;;;;586695;241;24101;-85
2021/12/13 07:05:18;;;;;;;112.37;36.03;;;0.40;99.90;-0.80;101024;;;;586767;241;24060;-84
2021/12/13 07:07:54;;;;;;;102.53;31.13;;;0.40;99.90;-0.80;101021;;;;586691;241;24066;-83
2021/12/13 07:10:23;;;;;;;66.33;21.50;;;0.40;99.90;-0.70;101025;;;;586093;241;24069;-85
2021/12/13 07:12:51;;;;;;;60.37;21.10;;;0.40;99.90;-0.70;101033;;;;586823;241;24043;-84
2021/12/13 07:15:25;;;;;;;56.60;20.03;;;0.40;99.90;-0.70;101037;;;;583733;240;24089;-83
2021/12/13 07:18:14;;;;;;;68.87;22.17;;;0.50;99.90;-0.60;101034;;;;576922;249;24168;-85
2021/12/13 07:21:06;;;;;;;47.03;17.20;;;0.60;99.90;-0.60;101037;;;;577263;249;24123;-88
2021/12/13 07:24:07;;;;;;;46.87;18.87;;;0.60;99.90;-0.50;101033;;;;575660;249;24150;-87
2021/12/13 07:26:34;;;;;;;53.77;18.30;;;0.60;99.90;-0.50;101046;;;;571018;249;24121;-88
2021/12/13 07:29:02;;;;;;;49.77;18.27;;;0.70;99.90;-0.40;101043;;;;572872;249;24135;-85
2021/12/13 07:31:29;;;;;;;40.80;16.27;;;0.70;99.90;-0.40;101047;;;;596256;239;24044;-87
2021/12/13 07:33:57;;;;;;;47.37;15.53;;;0.80;99.90;-0.30;101063;;;;578608;244;24092;-86
2021/12/13 07:36:25;;;;;;;35.93;16.10;;;0.90;99.90;-0.20;101060;;;;582103;240;24097;-86
2021/12/13 07:38:56;;;;;;;38.43;14.80;;;0.90;99.90;-0.10;101063;;;;580905;244;24143;-85
2021/12/13 07:41:27;;;;;;;39.50;14.33;;;1.10;99.90;0.00;101054;;;;577856;244;24047;-86
2021/12/13 07:43:55;;;;;;;44.77;18.13;;;1.10;99.90;0.10;101065;;;;584061;241;24069;-87
2021/12/13 07:46:23;;;;;;;41.57;15.60;;;1.30;99.90;0.10;101063;;;;585137;241;24033;-85
2021/12/13 07:48:59;;;;;;;61.37;20.10;;;1.30;99.90;0.20;101066;;;;577771;244;24142;-88
2021/12/13 07:51:33;;;;;;;55.93;19.73;;;1.40;99.90;0.30;101065;;;;577121;244;24071;-84
2021/12/13 07:54:01;;;;;;;48.53;20.10;;;1.50;99.90;0.30;101073;;;;577635;244;24098;-87
2021/12/13 07:56:38;;;;;;;55.20;19.03;;;1.50;99.90;0.30;101071;;;;567238;249;24108;-86
2021/12/13 07:59:26;;;;;;;37.43;16.77;;;1.50;99.90;0.30;101083;;;;589250;239;24053;-83
2021/12/13 08:02:09;;;;;;;56.27;19.77;;;1.50;99.90;0.30;101075;;;;594319;236;24038;-86
2021/12/13 08:04:37;;;;;;;54.63;19.13;;;1.50;99.90;0.30;101073;;;;593025;238;24065;-85
2021/12/13 08:07:19;;;;;;;39.30;15.67;;;1.60;99.90;0.40;101069;;;;587927;240;24070;-84
2021/12/13 08:09:47;;;;;;;57.40;20.77;;;1.60;99.90;0.40;101078;;;;583836;240;24058;-82
2021/12/13 08:12:15;;;;;;;57.33;20.47;;;1.60;99.90;0.40;101072;;;;593040;240;24042;-84
2021/12/13 08:14:43;;;;;;;65.97;22.27;;;1.60;99.90;0.50;101076;;;;586126;245;24095;-83
2021/12/13 08:17:13;;;;;;;47.43;19.47;;;1.70;99.90;0.50;101064;;;;585082;241;24096;-84
2021/12/13 08:19:41;;;;;;;53.43;20.10;;;1.70;99.90;0.60;101073;;;;590285;239;24125;-83
2021/12/13 08:22:12;;;;;;;52.27;20.37;;;1.70;99.90;0.50;101067;;;;575453;249;24143;-83
2021/12/13 08:24:40;;;;;;;49.57;21.27;;;1.80;99.90;0.60;101088;;;;566750;250;24072;-84
2021/12/13 08:27:11;;;;;;;48.83;17.97;;;1.80;99.90;0.60;101085;;;;585792;240;24077;-84
2021/12/13 08:29:39;;;;;;;39.40;18.53;;;1.90;99.90;0.70;101086;;;;579172;244;24040;-85
2021/12/13 08:32:07;;;;;;;61.83;20.73;;;1.90;99.90;0.80;101092;;;;572648;246;24120;-84
2021/12/13 08:34:50;;;;;;;57.20;22.20;;;2.00;99.90;0.90;101092;;;;579819;247;24152;-85
2021/12/13 08:37:21;;;;;;;58.43;22.03;;;2.10;99.90;0.90;101109;;;;564935;249;24134;-83
2021/12/13 08:40:13;;;;;;;56.83;22.13;;;2.10;99.90;0.90;101111;;;;567072;246;24255;-81
2021/12/13 08:42:41;;;;;;;63.33;23.83;;;2.10;99.90;0.80;101109;;;;566811;249;24122;-83
2021/12/13 08:45:27;;;;;;;47.20;21.43;;;2.10;99.90;0.90;101102;;;;577724;244;24065;-82
2021/12/13 08:47:51;;;;;;;68.00;23.80;;;2.10;99.90;0.80;101112;;;;575114;244;24151;-82
2021/12/13 08:50:22;;;;;;;52.80;19.57;;;2.10;99.90;0.80;101104;;;;575528;245;24122;-82
2021/12/13 08:52:54;;;;;;;60.60;22.40;;;2.00;99.90;0.80;101107;;;;589062;240;24024;-86
2021/12/13 08:55:21;;;;;;;39.23;18.37;;;2.00;99.90;0.80;101110;;;;585125;241;24030;-82
2021/12/13 08:58:06;;;;;;;47.50;20.90;;;2.00;99.90;0.80;101114;;;;577162;244;24174;-81
2021/12/13 09:01:00;;;;;;;61.13;22.23;;;2.00;99.90;0.70;101112;;;;577660;244;24076;-82
2021/12/13 09:03:43;;;;;;;45.80;22.03;;;2.00;99.90;0.70;101112;;;;565699;249;24103;-81
2021/12/13 09:06:12;;;;;;;50.40;20.07;;;1.90;99.90;0.70;101115;;;;580673;240;24130;-80
2021/12/13 09:08:49;;;;;;;62.13;22.80;;;1.90;99.90;0.70;101123;;;;588544;240;24093;-80
2021/12/13 09:11:20;;;;;;;40.73;17.77;;;1.90;99.90;0.70;101124;;;;578541;244;24108;-81
2021/12/13 09:13:49;;;;;;;47.97;20.43;;;1.90;99.90;1.00;101117;;;;585739;240;24083;-82
2021/12/13 09:16:19;;;;;;;43.87;17.43;;;2.10;99.90;1.20;101118;;;;592342;238;24049;-80
2021/12/13 09:18:47;;;;;;;79.07;35.28;;;2.30;99.90;1.50;101116;;;;563712;248;35301;-83
2021/12/13 09:21:15;;;;;;;60.90;23.83;;;2.60;99.90;1.60;101121;;;;595213;237;24030;-82
2021/12/13 09:23:46;;;;;;;62.73;25.33;;;2.80;99.90;1.60;101133;;;;594810;237;24029;-83
2021/12/13 09:26:14;;;;;;;82.83;31.10;;;2.90;99.90;1.70;101123;;;;594175;238;24098;-80
2021/12/13 09:28:51;;;;;;;75.30;30.70;;;2.90;99.90;1.70;101124;;;;568021;249;24114;-80
2021/12/13 09:31:21;;;;;;;62.50;25.93;;;2.90;99.90;1.80;101123;;;;593192;238;24135;-78
2021/12/13 09:34:07;;;;;;;63.87;25.80;;;3.10;99.90;2.00;101122;;;;591771;238;24041;-79
2021/12/13 09:36:38;;;;;;;67.07;25.27;;;3.20;99.90;2.10;101128;;;;585012;244;24100;-78
2021/12/13 09:39:20;;;;;;;61.07;22.37;;;3.30;99.90;2.10;101126;;;;589127;240;24042;-79
2021/12/13 09:42:00;;;;;;;71.80;26.00;;;3.40;99.90;2.10;101133;;;;584916;242;24062;-79
2021/12/13 09:44:51;;;;;;;69.17;23.43;;;3.40;99.90;2.20;101130;;;;584581;241;24038;-78
2021/12/13 09:47:17;;;;;;;58.43;26.07;;;3.40;99.90;2.30;101135;;;;578477;244;24136;-79
2021/12/13 09:49:57;;;;;;;65.93;27.30;;;3.50;99.90;2.40;101134;;;;570728;247;24154;-79
2021/12/13 09:52:49;;;;;;;69.20;26.27;;;3.60;99.90;2.50;101138;;;;568276;249;24143;-79
2021/12/13 09:55:29;;;;;;;72.67;25.17;;;3.60;99.90;2.40;101137;;;;575215;240;24149;-80
2021/12/13 09:58:01;;;;;;;68.87;26.80;;;3.70;99.90;2.40;101131;;;;567130;249;24121;-78
2021/12/13 10:00:48;;;;;;;83.53;28.17;;;3.70;99.90;2.40;101127;;;;574822;243;24429;-80
2021/12/13 10:03:34;;;;;;;69.50;26.77;;;3.60;99.90;2.40;101123;;;;578276;244;24119;-78
2021/12/13 10:06:02;;;;;;;76.80;26.93;;;3.60;99.90;2.40;101127;;;;577456;244;24086;-81
2021/12/13 10:08:30;;;;;;;71.13;28.77;;;3.60;99.90;2.40;101122;;;;588135;240;24035;-81
2021/12/13 10:11:01;;;;;;;72.47;28.87;;;3.60;99.90;2.40;101134;;;;576907;244;24094;-79
2021/12/13 10:13:39;;;;;;;79.10;29.53;;;3.60;99.90;2.30;101136;;;;567070;249;24300;-80
2021/12/13 10:16:09;;;;;;;78.17;28.43;;;3.50;99.90;2.20;101133;;;;566629;249;24176;-81
2021/12/13 10:18:37;;;;;;;76.30;26.60;;;3.40;99.90;2.30;101126;;;;584355;242;24098;-82
2021/12/13 10:21:10;;;;;;;82.93;26.47;;;3.40;99.90;2.30;101131;;;;584019;243;24042;-81
2021/12/13 10:23:38;;;;;;;79.07;27.40;;;3.40;99.90;2.40;101127;;;;587609;243;24057;-81
2021/12/13 10:26:06;;;;;;;68.17;26.33;;;3.50;99.90;2.50;101136;;;;588628;240;24046;-81
2021/12/13 10:28:34;;;;;;;61.00;25.63;;;3.60;99.90;2.60;101118;;;;589733;240;24034;-80
2021/12/13 10:31:05;;;;;;;86.63;29.47;;;3.70;99.90;2.60;101119;;;;589532;242;24045;-81
2021/12/13 10:33:33;;;;;;;75.27;27.67;;;3.80;99.90;2.60;101113;;;;585033;242;24081;-81
2021/12/13 10:36:02;;;;;;;73.00;28.60;;;3.70;99.90;2.50;101111;;;;588821;239;24028;-81
2021/12/13 10:38:29;;;;;;;79.73;29.10;;;3.70;99.90;2.50;101103;;;;589815;239;24073;-81
2021/12/13 10:41:08;;;;;;;64.40;25.87;;;3.70;99.90;2.50;101117;;;;588214;239;24026;-80
2021/12/13 10:43:34;;;;;;;86.93;29.47;;;3.60;99.90;2.50;101114;;;;578027;244;24113;-80
2021/12/13 10:46:02;;;;;;;82.93;29.43;;;3.70;99.90;2.50;101111;;;;586438;241;24039;-81
2021/12/13 10:48:30;;;;;;;80.83;26.00;;;3.70;99.90;2.40;101109;;;;586334;241;24149;-79
2021/12/13 10:51:06;;;;;;;77.20;28.23;;;3.60;99.90;2.50;101103;;;;586735;239;24059;-82
2021/12/13 10:53:38;;;;;;;76.67;27.33;;;3.60;99.90;2.50;101105;;;;589081;239;24166;-82
2021/12/13 10:56:06;;;;;;;80.80;28.23;;;3.70;99.90;2.50;101103;;;;582516;242;24045;-80
2021/12/13 10:58:34;;;;;;;77.00;27.87;;;3.70;99.90;2.60;101107;;;;583484;242;24108;-79
2021/12/13 11:01:11;;;;;;;84.87;31.30;;;3.70;99.90;2.60;101104;;;;576091;247;24097;-81
2021/12/13 11:03:39;;;;;;;81.37;29.00;;;3.70;99.90;2.70;101109;;;;557269;248;24153;-81
2021/12/13 11:06:08;;;;;;;83.37;31.37;;;3.80;99.90;2.70;101106;;;;577264;244;24044;-80
2021/12/13 11:08:41;;;;;;;71.83;27.70;;;3.90;99.90;2.80;101108;;;;583433;242;24037;-81
2021/12/13 11:11:07;;;;;;;78.40;27.80;;;3.90;99.90;2.90;101118;;;;593447;240;24080;-81
2021/12/13 11:13:35;;;;;;;82.20;31.00;;;4.00;99.90;2.80;101113;;;;588862;240;24093;-82
2021/12/13 11:16:02;;;;;;;90.53;30.30;;;4.00;99.90;2.90;101112;;;;583065;243;24063;-83
2021/12/13 11:18:30;;;;;;;106.63;31.77;;;4.00;99.90;2.90;101119;;;;581457;243;24122;-82
2021/12/13 11:20:58;;;;;;;124.60;44.47;;;4.00;99.90;2.80;101107;;;;582983;240;24074;-84
2021/12/13 11:23:26;;;;;;;80.20;30.17;;;4.00;99.90;2.80;101112;;;;584015;242;24135;-82
2021/12/13 11:25:57;;;;;;;79.30;28.73;;;3.90;99.90;2.80;101114;;;;595223;240;24029;-83
2021/12/13 11:28:25;;;;;;;74.47;27.07;;;4.00;99.90;2.70;101109;;;;567520;247;24081;-81
2021/12/13 11:30:56;;;;;;;82.90;29.97;;;3.90;99.90;2.70;101115;;;;581263;243;24127;-79
2021/12/13 11:33:41;;;;;;;83.63;29.40;;;3.90;99.90;2.70;101108;;;;577766;244;24109;-80
2021/12/13 11:36:40;;;;;;;83.77;28.43;;;3.80;99.90;2.70;101112;;;;586614;241;24030;-79
2021/12/13 11:39:41;;;;;;;74.17;28.67;;;3.80;99.90;2.70;101109;;;;578242;244;24106;-81